Kapalua-West, HI

2:06 AM HST on September 02, 2014 (GMT -1000)
The Ridge at Kapalua | Change Station
CLOSE
Current Station
Personal Weather Station
Location: Kapalua, HI
Elevation: 100 ft
Nearby Weather Stations

Elev 100 ft 21.00 °N, 156.66 °W | Updated 1 minute ago

Clear
Clear
75.7 °F
Feels Like 76 °F
N
2.0
Wind Variable Wind from ENE
Gusts 3.0 mph

Today
High -- | Low -- °F
--% Chance of Precip.
Yesterday
High -- | Low -- °F
Precip. -- in
6:10 AM 6:41 PM
Waxing Crescent, 51% visible
Pressure 30.02 in
Visibility 10.0 miles
Clouds Clear
Heat Index 76 °F
Dew Point 71 °F
Humidity 85%
Rainfall 0.00 in
Snow Depth Not available.
UV 0 out of 12
Pollen Not available.
Air Quality Not available.
Flu Activity Not available.
METAR PHOG 021154Z AUTO 00000KT 10SM CLR 22/19 A3000 RMK AO2 SLP164 T02220194 10267 20222 58012 TSNO $

More Conditions Fewer Conditions

Pressure 30.02 in
Visibility 10.0 miles
Clouds Clear
Heat Index 76 °F
Dew Point 71 °F
Humidity 85%
Rainfall 0.00 in
Snow Depth Not available.
UV 0 out of 12
Pollen Not available.
Air Quality Not available.
Flu Activity Not available.
METAR PHOG 021154Z AUTO 00000KT 10SM CLR 22/19 A3000 RMK AO2 SLP164 T02220194 10267 20222 58012 TSNO $

More Conditions Fewer Conditions

10-Day Weather Forecast

Almanac

Astronomy

Sep. 02, 2014 Rise Set
Actual Time 6:10 AM HST 6:41 PM HST
Civil Twilight 5:48 AM HST 7:03 PM HST
Nautical Twilight 5:22 AM HST 7:30 PM HST
Astronomical Twilight 4:55 AM HST 7:56 PM HST
Moon 1:13 PM HST No Moon Set
Length of Visible Light 13h 15m
Length of Day
12h 30m
Tomorrow will be 1m 9s shorter.
Waxing Crescent, 51% of the Moon is Illuminated
Today
Waxing Crescent
Sep 8
Full
Sep 15
Last Quarter
Sep 24
New
Oct 1
First Quarter

Today's Extremes

State Highs State Lows

Community

WunderPhotos

Upload Photos

1,749,622 photos uploaded!

WunderBlogs® & News

By Dr. Jeff Masters
Director of Meteorology, Weather Underground
By Kari Strenfel
Meteorologist, Weather Underground
By Christopher C. Burt
Weather Historian, Weather Underground
September 2, 2014
September 2, 2014
September 2, 2014

Nearby

Snow Depth

Station Depth Elevation
No new snow has been reported.

Earthquake Activity

City Distance Mag. Time & Date
No recent earthquake activity has been reported nearby.
Minimum magnitude displayed is 2.5.

Coastal Water Temperatures

Place Temperature
No Stations Reporting

Nearby Weather Stations